Attica Junction, Ohio
Current Conditions -  °F | °C
As of 9:32 AM on Thursday 27 Nov 2014 (Local Time) from KMFD Reporting Station
Haze Haze  
Wind Chill: 17°   Ceiling: 1100
Heat Index: 28°   Visibility: 6mi
Dew Point: 25°   Wind: 13mph
Humidity: 88%   Direction: 320°NW
Pressure: 30.12"   Gusts: NA
Location:  41.0654°N, 82.876°W
Report Text: KMFD 271432Z 32011KT 6SM BR BKN011 OVC018 M02/M04 A3012 RMK AO2 T10221039
Loading
Personal Weather Stations






























Interactive Weather Map New forecast layout! Learn more

10-Day Weather Forecast

Advertisements
Track Severe Weather on mobile